sensor_id;sensor_type;location;lat;lon;timestamp;P1;durP1;ratioP1;P2;durP2;ratioP2
16979;SDS011;42288;52.182;21.156;2022-11-14T00:00:04;34.03;;;15.90;;
16979;SDS011;42288;52.182;21.156;2022-11-14T00:02:32;31.97;;;15.87;;
16979;SDS011;42288;52.182;21.156;2022-11-14T00:04:57;31.83;;;16.07;;
16979;SDS011;42288;52.182;21.156;2022-11-14T00:07:23;33.00;;;17.37;;
16979;SDS011;42288;52.182;21.156;2022-11-14T00:09:48;34.80;;;17.03;;
16979;SDS011;42288;52.182;21.156;2022-11-14T00:12:13;33.30;;;16.57;;
16979;SDS011;42288;52.182;21.156;2022-11-14T00:14:39;28.57;;;14.63;;
16979;SDS011;42288;52.182;21.156;2022-11-14T00:17:04;31.57;;;15.87;;
16979;SDS011;42288;52.182;21.156;2022-11-14T00:19:30;32.43;;;17.37;;
16979;SDS011;42288;52.182;21.156;2022-11-14T00:21:56;30.73;;;15.30;;
16979;SDS011;42288;52.182;21.156;2022-11-14T00:24:21;31.40;;;15.53;;
16979;SDS011;42288;52.182;21.156;2022-11-14T00:26:47;35.07;;;15.67;;
16979;SDS011;42288;52.182;21.156;2022-11-14T00:29:13;30.97;;;15.93;;
16979;SDS011;42288;52.182;21.156;2022-11-14T00:31:39;33.53;;;15.87;;
16979;SDS011;42288;52.182;21.156;2022-11-14T00:34:05;35.87;;;16.47;;
16979;SDS011;42288;52.182;21.156;2022-11-14T00:36:31;32.50;;;15.63;;
16979;SDS011;42288;52.182;21.156;2022-11-14T00:38:57;30.37;;;14.27;;
16979;SDS011;42288;52.182;21.156;2022-11-14T00:41:23;29.47;;;15.73;;
16979;SDS011;42288;52.182;21.156;2022-11-14T00:43:48;30.20;;;16.90;;
16979;SDS011;42288;52.182;21.156;2022-11-14T00:46:14;29.90;;;15.47;;
16979;SDS011;42288;52.182;21.156;2022-11-14T00:48:40;29.60;;;14.47;;
16979;SDS011;42288;52.182;21.156;2022-11-14T00:51:06;32.73;;;15.77;;
16979;SDS011;42288;52.182;21.156;2022-11-14T00:53:31;31.67;;;17.10;;
16979;SDS011;42288;52.182;21.156;2022-11-14T00:55:57;33.27;;;17.37;;
16979;SDS011;42288;52.182;21.156;2022-11-14T00:58:22;30.87;;;16.53;;
16979;SDS011;42288;52.182;21.156;2022-11-14T01:00:48;34.33;;;15.37;;
16979;SDS011;42288;52.182;21.156;2022-11-14T01:03:13;35.33;;;17.37;;
16979;SDS011;42288;52.182;21.156;2022-11-14T01:05:42;29.27;;;15.03;;
16979;SDS011;42288;52.182;21.156;2022-11-14T01:08:10;36.17;;;15.53;;
16979;SDS011;42288;52.182;21.156;2022-11-14T01:10:47;30.97;;;15.37;;
16979;SDS011;42288;52.182;21.156;2022-11-14T01:13:15;29.80;;;14.53;;
16979;SDS011;42288;52.182;21.156;2022-11-14T01:15:43;30.77;;;15.97;;
16979;SDS011;42288;52.182;21.156;2022-11-14T01:18:10;32.07;;;14.93;;
16979;SDS011;42288;52.182;21.156;2022-11-14T01:20:39;36.30;;;16.97;;
16979;SDS011;42288;52.182;21.156;2022-11-14T01:23:05;31.43;;;15.27;;
16979;SDS011;42288;52.182;21.156;2022-11-14T01:25:33;35.13;;;15.43;;
16979;SDS011;42288;52.182;21.156;2022-11-14T01:27:59;34.47;;;16.63;;
16979;SDS011;42288;52.182;21.156;2022-11-14T01:30:25;30.40;;;15.50;;
16979;SDS011;42288;52.182;21.156;2022-11-14T01:32:50;34.43;;;16.03;;
16979;SDS011;42288;52.182;21.156;2022-11-14T01:35:16;35.40;;;16.67;;
16979;SDS011;42288;52.182;21.156;2022-11-14T01:37:41;33.13;;;16.30;;
16979;SDS011;42288;52.182;21.156;2022-11-14T01:40:07;33.73;;;15.63;;
16979;SDS011;42288;52.182;21.156;2022-11-14T01:42:33;35.20;;;15.13;;
16979;SDS011;42288;52.182;21.156;2022-11-14T01:44:59;29.57;;;14.00;;
16979;SDS011;42288;52.182;21.156;2022-11-14T01:47:25;32.43;;;14.60;;
16979;SDS011;42288;52.182;21.156;2022-11-14T01:49:53;32.13;;;15.73;;
16979;SDS011;42288;52.182;21.156;2022-11-14T01:52:32;30.50;;;14.73;;
16979;SDS011;42288;52.182;21.156;2022-11-14T01:55:01;29.90;;;14.97;;
16979;SDS011;42288;52.182;21.156;2022-11-14T01:57:33;33.07;;;15.73;;
16979;SDS011;42288;52.182;21.156;2022-11-14T02:00:06;29.53;;;14.03;;
16979;SDS011;42288;52.182;21.156;2022-11-14T02:02:33;31.23;;;14.03;;
16979;SDS011;42288;52.182;21.156;2022-11-14T02:05:00;31.03;;;15.47;;
16979;SDS011;42288;52.182;21.156;2022-11-14T02:07:31;28.50;;;13.70;;
16979;SDS011;42288;52.182;21.156;2022-11-14T02:09:58;32.03;;;14.50;;
16979;SDS011;42288;52.182;21.156;2022-11-14T02:12:27;29.00;;;14.00;;
16979;SDS011;42288;52.182;21.156;2022-11-14T02:14:53;31.30;;;15.17;;
16979;SDS011;42288;52.182;21.156;2022-11-14T02:17:21;27.70;;;13.37;;
16979;SDS011;42288;52.182;21.156;2022-11-14T02:19:52;31.53;;;15.37;;
16979;SDS011;42288;52.182;21.156;2022-11-14T02:22:24;28.93;;;14.37;;
16979;SDS011;42288;52.182;21.156;2022-11-14T02:24:49;29.37;;;15.13;;
16979;SDS011;42288;52.182;21.156;2022-11-14T02:27:15;29.87;;;14.17;;
16979;SDS011;42288;52.182;21.156;2022-11-14T02:29:40;29.80;;;13.70;;
16979;SDS011;42288;52.182;21.156;2022-11-14T02:32:06;31.53;;;14.80;;
16979;SDS011;42288;52.182;21.156;2022-11-14T02:34:32;29.60;;;14.67;;
16979;SDS011;42288;52.182;21.156;2022-11-14T02:36:57;29.20;;;14.20;;
16979;SDS011;42288;52.182;21.156;2022-11-14T02:39:23;30.17;;;14.33;;
16979;SDS011;42288;52.182;21.156;2022-11-14T02:41:49;28.17;;;14.20;;
16979;SDS011;42288;52.182;21.156;2022-11-14T02:44:15;26.87;;;14.07;;
16979;SDS011;42288;52.182;21.156;2022-11-14T02:46:41;29.67;;;14.20;;
16979;SDS011;42288;52.182;21.156;2022-11-14T02:49:06;30.97;;;15.57;;
16979;SDS011;42288;52.182;21.156;2022-11-14T02:51:32;27.90;;;14.47;;
16979;SDS011;42288;52.182;21.156;2022-11-14T02:53:57;31.13;;;15.37;;
16979;SDS011;42288;52.182;21.156;2022-11-14T02:56:23;30.17;;;15.23;;
16979;SDS011;42288;52.182;21.156;2022-11-14T02:58:48;28.97;;;14.23;;
16979;SDS011;42288;52.182;21.156;2022-11-14T03:01:14;28.47;;;14.93;;
16979;SDS011;42288;52.182;21.156;2022-11-14T03:03:39;30.17;;;14.83;;
16979;SDS011;42288;52.182;21.156;2022-11-14T03:06:05;25.53;;;13.33;;
16979;SDS011;42288;52.182;21.156;2022-11-14T03:08:30;27.00;;;13.63;;
16979;SDS011;42288;52.182;21.156;2022-11-14T03:11:02;27.07;;;14.37;;
16979;SDS011;42288;52.182;21.156;2022-11-14T03:13:28;25.07;;;13.03;;
16979;SDS011;42288;52.182;21.156;2022-11-14T03:15:54;26.53;;;14.30;;
16979;SDS011;42288;52.182;21.156;2022-11-14T03:18:20;27.80;;;14.23;;
16979;SDS011;42288;52.182;21.156;2022-11-14T03:20:45;22.63;;;12.77;;
16979;SDS011;42288;52.182;21.156;2022-11-14T03:23:11;30.40;;;14.07;;
16979;SDS011;42288;52.182;21.156;2022-11-14T03:25:36;25.73;;;12.80;;
16979;SDS011;42288;52.182;21.156;2022-11-14T03:28:02;26.73;;;14.23;;
16979;SDS011;42288;52.182;21.156;2022-11-14T03:30:27;22.57;;;11.80;;
16979;SDS011;42288;52.182;21.156;2022-11-14T03:32:54;27.17;;;13.30;;
16979;SDS011;42288;52.182;21.156;2022-11-14T03:35:20;21.27;;;11.67;;
16979;SDS011;42288;52.182;21.156;2022-11-14T03:37:45;26.00;;;12.43;;
16979;SDS011;42288;52.182;21.156;2022-11-14T03:40:11;25.07;;;13.13;;
16979;SDS011;42288;52.182;21.156;2022-11-14T03:42:36;26.40;;;12.90;;
16979;SDS011;42288;52.182;21.156;2022-11-14T03:45:02;27.50;;;14.17;;
16979;SDS011;42288;52.182;21.156;2022-11-14T03:47:28;31.83;;;16.30;;
16979;SDS011;42288;52.182;21.156;2022-11-14T03:49:53;27.33;;;15.20;;
16979;SDS011;42288;52.182;21.156;2022-11-14T03:52:19;30.63;;;15.57;;
16979;SDS011;42288;52.182;21.156;2022-11-14T03:54:44;28.07;;;13.97;;
16979;SDS011;42288;52.182;21.156;2022-11-14T03:57:10;25.50;;;13.83;;
16979;SDS011;42288;52.182;21.156;2022-11-14T03:59:35;24.23;;;13.37;;
16979;SDS011;42288;52.182;21.156;2022-11-14T04:02:01;25.70;;;13.93;;
16979;SDS011;42288;52.182;21.156;2022-11-14T04:04:26;26.83;;;14.47;;
16979;SDS011;42288;52.182;21.156;2022-11-14T04:06:52;26.50;;;13.80;;
16979;SDS011;42288;52.182;21.156;2022-11-14T04:09:17;24.23;;;12.80;;
16979;SDS011;42288;52.182;21.156;2022-11-14T04:11:43;23.57;;;12.93;;
16979;SDS011;42288;52.182;21.156;2022-11-14T04:14:08;25.70;;;12.90;;
16979;SDS011;42288;52.182;21.156;2022-11-14T04:16:34;20.23;;;12.40;;
16979;SDS011;42288;52.182;21.156;2022-11-14T04:19:00;24.63;;;12.67;;
16979;SDS011;42288;52.182;21.156;2022-11-14T04:21:25;26.20;;;13.30;;
16979;SDS011;42288;52.182;21.156;2022-11-14T04:23:51;21.77;;;12.30;;
16979;SDS011;42288;52.182;21.156;2022-11-14T04:26:16;25.73;;;13.63;;
16979;SDS011;42288;52.182;21.156;2022-11-14T04:28:42;22.03;;;12.07;;
16979;SDS011;42288;52.182;21.156;2022-11-14T04:31:07;22.80;;;12.83;;
16979;SDS011;42288;52.182;21.156;2022-11-14T04:33:33;23.23;;;12.10;;
16979;SDS011;42288;52.182;21.156;2022-11-14T04:35:58;22.07;;;12.50;;
16979;SDS011;42288;52.182;21.156;2022-11-14T04:38:24;24.77;;;13.23;;
16979;SDS011;42288;52.182;21.156;2022-11-14T04:40:50;23.97;;;12.33;;
16979;SDS011;42288;52.182;21.156;2022-11-14T04:43:16;25.07;;;13.97;;
16979;SDS011;42288;52.182;21.156;2022-11-14T04:45:43;23.77;;;12.23;;
16979;SDS011;42288;52.182;21.156;2022-11-14T04:48:08;26.03;;;13.17;;
16979;SDS011;42288;52.182;21.156;2022-11-14T04:50:34;25.30;;;13.47;;
16979;SDS011;42288;52.182;21.156;2022-11-14T04:53:00;25.90;;;13.37;;
16979;SDS011;42288;52.182;21.156;2022-11-14T04:55:25;27.23;;;13.60;;
16979;SDS011;42288;52.182;21.156;2022-11-14T04:57:54;25.27;;;13.87;;
16979;SDS011;42288;52.182;21.156;2022-11-14T05:00:21;21.53;;;12.03;;
16979;SDS011;42288;52.182;21.156;2022-11-14T05:02:47;27.47;;;13.70;;
16979;SDS011;42288;52.182;21.156;2022-11-14T05:05:13;28.10;;;15.23;;
16979;SDS011;42288;52.182;21.156;2022-11-14T05:07:38;25.47;;;14.17;;
16979;SDS011;42288;52.182;21.156;2022-11-14T05:10:04;25.50;;;14.33;;
16979;SDS011;42288;52.182;21.156;2022-11-14T05:12:30;22.03;;;12.70;;
16979;SDS011;42288;52.182;21.156;2022-11-14T05:14:55;22.00;;;11.87;;
16979;SDS011;42288;52.182;21.156;2022-11-14T05:17:21;31.23;;;16.67;;
16979;SDS011;42288;52.182;21.156;2022-11-14T05:19:46;28.73;;;15.33;;
16979;SDS011;42288;52.182;21.156;2022-11-14T05:22:12;32.07;;;17.13;;
16979;SDS011;42288;52.182;21.156;2022-11-14T05:24:37;34.90;;;17.40;;
16979;SDS011;42288;52.182;21.156;2022-11-14T05:27:03;31.10;;;17.17;;
16979;SDS011;42288;52.182;21.156;2022-11-14T05:29:28;33.80;;;17.53;;
16979;SDS011;42288;52.182;21.156;2022-11-14T05:31:54;36.47;;;19.30;;
16979;SDS011;42288;52.182;21.156;2022-11-14T05:34:20;36.83;;;17.67;;
16979;SDS011;42288;52.182;21.156;2022-11-14T05:36:45;32.67;;;16.80;;
16979;SDS011;42288;52.182;21.156;2022-11-14T05:39:11;32.77;;;17.57;;
16979;SDS011;42288;52.182;21.156;2022-11-14T05:41:36;34.20;;;17.57;;
16979;SDS011;42288;52.182;21.156;2022-11-14T05:44:05;37.50;;;18.33;;
16979;SDS011;42288;52.182;21.156;2022-11-14T05:46:30;37.53;;;18.90;;
16979;SDS011;42288;52.182;21.156;2022-11-14T05:48:56;38.67;;;19.07;;
16979;SDS011;42288;52.182;21.156;2022-11-14T05:51:22;40.37;;;18.80;;
16979;SDS011;42288;52.182;21.156;2022-11-14T05:53:47;38.17;;;19.77;;
16979;SDS011;42288;52.182;21.156;2022-11-14T05:56:13;38.77;;;18.50;;
16979;SDS011;42288;52.182;21.156;2022-11-14T05:58:38;39.03;;;19.00;;
16979;SDS011;42288;52.182;21.156;2022-11-14T06:01:05;34.93;;;18.27;;
16979;SDS011;42288;52.182;21.156;2022-11-14T06:03:33;38.83;;;19.77;;
16979;SDS011;42288;52.182;21.156;2022-11-14T06:06:03;35.07;;;17.53;;
16979;SDS011;42288;52.182;21.156;2022-11-14T06:08:30;34.47;;;18.43;;
16979;SDS011;42288;52.182;21.156;2022-11-14T06:11:00;30.60;;;17.00;;
16979;SDS011;42288;52.182;21.156;2022-11-14T06:13:31;31.37;;;16.90;;
16979;SDS011;42288;52.182;21.156;2022-11-14T06:15:57;31.43;;;16.57;;
16979;SDS011;42288;52.182;21.156;2022-11-14T06:18:24;31.33;;;16.03;;
16979;SDS011;42288;52.182;21.156;2022-11-14T06:20:50;29.47;;;16.70;;
16979;SDS011;42288;52.182;21.156;2022-11-14T06:23:16;29.97;;;15.60;;
16979;SDS011;42288;52.182;21.156;2022-11-14T06:25:41;28.40;;;16.00;;
16979;SDS011;42288;52.182;21.156;2022-11-14T06:28:06;26.53;;;14.40;;
16979;SDS011;42288;52.182;21.156;2022-11-14T06:30:32;26.60;;;14.93;;
16979;SDS011;42288;52.182;21.156;2022-11-14T06:32:57;28.70;;;13.37;;
16979;SDS011;42288;52.182;21.156;2022-11-14T06:35:24;26.93;;;13.40;;
16979;SDS011;42288;52.182;21.156;2022-11-14T06:37:50;27.97;;;13.73;;
16979;SDS011;42288;52.182;21.156;2022-11-14T06:40:15;24.17;;;12.03;;
16979;SDS011;42288;52.182;21.156;2022-11-14T06:42:41;25.53;;;11.33;;
16979;SDS011;42288;52.182;21.156;2022-11-14T06:45:06;24.80;;;11.87;;
16979;SDS011;42288;52.182;21.156;2022-11-14T06:47:32;26.50;;;12.73;;
16979;SDS011;42288;52.182;21.156;2022-11-14T06:49:58;21.60;;;10.43;;
16979;SDS011;42288;52.182;21.156;2022-11-14T06:52:23;23.33;;;12.00;;
16979;SDS011;42288;52.182;21.156;2022-11-14T06:54:50;18.57;;;10.77;;
16979;SDS011;42288;52.182;21.156;2022-11-14T06:57:15;19.60;;;10.63;;
16979;SDS011;42288;52.182;21.156;2022-11-14T06:59:41;22.67;;;11.07;;
16979;SDS011;42288;52.182;21.156;2022-11-14T07:02:10;21.20;;;10.07;;
16979;SDS011;42288;52.182;21.156;2022-11-14T07:04:38;20.73;;;10.93;;
16979;SDS011;42288;52.182;21.156;2022-11-14T07:07:04;26.37;;;11.57;;
16979;SDS011;42288;52.182;21.156;2022-11-14T07:09:29;19.07;;;9.90;;
16979;SDS011;42288;52.182;21.156;2022-11-14T07:11:55;18.57;;;9.70;;
16979;SDS011;42288;52.182;21.156;2022-11-14T07:14:20;18.33;;;9.93;;
16979;SDS011;42288;52.182;21.156;2022-11-14T07:16:46;18.27;;;9.10;;
16979;SDS011;42288;52.182;21.156;2022-11-14T07:19:12;18.70;;;9.07;;
16979;SDS011;42288;52.182;21.156;2022-11-14T07:21:37;20.63;;;10.37;;
16979;SDS011;42288;52.182;21.156;2022-11-14T07:24:03;17.30;;;8.70;;
16979;SDS011;42288;52.182;21.156;2022-11-14T07:26:29;19.17;;;8.53;;
16979;SDS011;42288;52.182;21.156;2022-11-14T07:28:55;17.40;;;8.43;;
16979;SDS011;42288;52.182;21.156;2022-11-14T07:31:20;15.20;;;7.83;;
16979;SDS011;42288;52.182;21.156;2022-11-14T07:33:46;13.93;;;7.13;;
16979;SDS011;42288;52.182;21.156;2022-11-14T07:36:12;13.40;;;7.73;;
16979;SDS011;42288;52.182;21.156;2022-11-14T07:38:39;13.67;;;6.83;;
16979;SDS011;42288;52.182;21.156;2022-11-14T07:41:14;13.77;;;6.90;;
16979;SDS011;42288;52.182;21.156;2022-11-14T07:43:40;13.47;;;7.30;;
16979;SDS011;42288;52.182;21.156;2022-11-14T07:46:08;13.03;;;6.93;;
16979;SDS011;42288;52.182;21.156;2022-11-14T07:48:36;18.27;;;7.83;;
16979;SDS011;42288;52.182;21.156;2022-11-14T07:51:02;13.80;;;7.53;;
16979;SDS011;42288;52.182;21.156;2022-11-14T07:53:29;14.50;;;7.00;;
16979;SDS011;42288;52.182;21.156;2022-11-14T07:55:56;13.20;;;7.90;;
16979;SDS011;42288;52.182;21.156;2022-11-14T07:58:25;19.17;;;9.47;;
16979;SDS011;42288;52.182;21.156;2022-11-14T08:00:51;13.23;;;8.13;;
16979;SDS011;42288;52.182;21.156;2022-11-14T08:03:17;13.87;;;8.17;;
16979;SDS011;42288;52.182;21.156;2022-11-14T08:05:42;18.17;;;8.90;;
16979;SDS011;42288;52.182;21.156;2022-11-14T08:08:07;15.87;;;8.83;;
16979;SDS011;42288;52.182;21.156;2022-11-14T08:10:33;16.13;;;8.80;;
16979;SDS011;42288;52.182;21.156;2022-11-14T08:12:59;16.03;;;8.40;;
16979;SDS011;42288;52.182;21.156;2022-11-14T08:15:27;16.37;;;9.57;;
16979;SDS011;42288;52.182;21.156;2022-11-14T08:17:56;16.83;;;8.93;;
16979;SDS011;42288;52.182;21.156;2022-11-14T08:20:22;17.33;;;9.90;;
16979;SDS011;42288;52.182;21.156;2022-11-14T08:22:48;16.33;;;9.37;;
16979;SDS011;42288;52.182;21.156;2022-11-14T08:25:13;16.67;;;9.97;;
16979;SDS011;42288;52.182;21.156;2022-11-14T08:27:39;15.57;;;9.30;;
16979;SDS011;42288;52.182;21.156;2022-11-14T08:30:04;14.10;;;8.97;;
16979;SDS011;42288;52.182;21.156;2022-11-14T08:32:30;17.27;;;9.60;;
16979;SDS011;42288;52.182;21.156;2022-11-14T08:34:56;16.27;;;8.67;;
16979;SDS011;42288;52.182;21.156;2022-11-14T08:37:21;13.57;;;7.10;;
16979;SDS011;42288;52.182;21.156;2022-11-14T08:39:47;12.90;;;7.30;;
16979;SDS011;42288;52.182;21.156;2022-11-14T08:42:12;10.53;;;5.33;;
16979;SDS011;42288;52.182;21.156;2022-11-14T08:44:38;9.23;;;5.00;;
16979;SDS011;42288;52.182;21.156;2022-11-14T08:47:03;8.67;;;5.57;;
16979;SDS011;42288;52.182;21.156;2022-11-14T08:49:29;8.93;;;5.10;;
16979;SDS011;42288;52.182;21.156;2022-11-14T08:51:54;9.67;;;5.33;;
16979;SDS011;42288;52.182;21.156;2022-11-14T08:54:20;8.40;;;5.10;;
16979;SDS011;42288;52.182;21.156;2022-11-14T08:56:45;8.33;;;4.73;;
16979;SDS011;42288;52.182;21.156;2022-11-14T08:59:11;7.17;;;4.53;;
16979;SDS011;42288;52.182;21.156;2022-11-14T09:01:36;8.43;;;4.97;;
16979;SDS011;42288;52.182;21.156;2022-11-14T09:04:02;8.07;;;5.07;;
16979;SDS011;42288;52.182;21.156;2022-11-14T09:06:28;9.37;;;4.83;;
16979;SDS011;42288;52.182;21.156;2022-11-14T09:08:54;8.77;;;5.20;;
16979;SDS011;42288;52.182;21.156;2022-11-14T09:11:19;13.73;;;5.67;;
16979;SDS011;42288;52.182;21.156;2022-11-14T09:13:45;9.13;;;5.80;;
16979;SDS011;42288;52.182;21.156;2022-11-14T09:16:11;9.30;;;5.87;;
16979;SDS011;42288;52.182;21.156;2022-11-14T09:18:36;8.63;;;5.33;;
16979;SDS011;42288;52.182;21.156;2022-11-14T09:21:02;9.60;;;5.80;;
16979;SDS011;42288;52.182;21.156;2022-11-14T09:23:29;10.63;;;6.50;;
16979;SDS011;42288;52.182;21.156;2022-11-14T09:25:55;14.77;;;5.97;;
16979;SDS011;42288;52.182;21.156;2022-11-14T09:28:21;8.83;;;5.87;;
16979;SDS011;42288;52.182;21.156;2022-11-14T09:30:47;10.70;;;6.67;;
16979;SDS011;42288;52.182;21.156;2022-11-14T09:33:13;11.17;;;6.93;;
16979;SDS011;42288;52.182;21.156;2022-11-14T09:35:39;10.87;;;6.83;;
16979;SDS011;42288;52.182;21.156;2022-11-14T09:38:09;13.77;;;8.13;;
16979;SDS011;42288;52.182;21.156;2022-11-14T09:40:41;12.43;;;7.37;;
16979;SDS011;42288;52.182;21.156;2022-11-14T09:43:20;13.73;;;7.57;;
16979;SDS011;42288;52.182;21.156;2022-11-14T09:45:54;10.90;;;6.43;;
16979;SDS011;42288;52.182;21.156;2022-11-14T09:48:22;10.03;;;6.07;;
16979;SDS011;42288;52.182;21.156;2022-11-14T09:51:00;9.53;;;5.47;;
16979;SDS011;42288;52.182;21.156;2022-11-14T09:56:16;8.73;;;4.53;;
16979;SDS011;42288;52.182;21.156;2022-11-14T09:58:46;7.30;;;4.63;;
16979;SDS011;42288;52.182;21.156;2022-11-14T10:03:55;6.60;;;3.90;;
16979;SDS011;42288;52.182;21.156;2022-11-14T10:09:29;9.10;;;4.60;;
16979;SDS011;42288;52.182;21.156;2022-11-14T10:12:19;6.50;;;4.20;;
16979;SDS011;42288;52.182;21.156;2022-11-14T10:14:56;9.93;;;4.67;;
16979;SDS011;42288;52.182;21.156;2022-11-14T10:25:25;9.43;;;5.47;;
16979;SDS011;42288;52.182;21.156;2022-11-14T10:28:10;9.73;;;5.80;;
16979;SDS011;42288;52.182;21.156;2022-11-14T10:30:39;13.13;;;7.87;;
16979;SDS011;42288;52.182;21.156;2022-11-14T10:39:13;14.57;;;7.10;;
16979;SDS011;42288;52.182;21.156;2022-11-14T10:41:43;12.77;;;7.10;;
16979;SDS011;42288;52.182;21.156;2022-11-14T10:44:12;14.77;;;8.63;;
16979;SDS011;42288;52.182;21.156;2022-11-14T10:46:46;14.23;;;7.67;;
16979;SDS011;42288;52.182;21.156;2022-11-14T10:49:22;18.83;;;8.40;;
16979;SDS011;42288;52.182;21.156;2022-11-14T10:51:53;14.97;;;7.97;;
16979;SDS011;42288;52.182;21.156;2022-11-14T10:56:54;17.83;;;9.33;;
16979;SDS011;42288;52.182;21.156;2022-11-14T10:59:20;17.00;;;9.50;;
16979;SDS011;42288;52.182;21.156;2022-11-14T11:04:19;21.43;;;11.50;;
16979;SDS011;42288;52.182;21.156;2022-11-14T11:06:56;22.83;;;12.17;;
16979;SDS011;42288;52.182;21.156;2022-11-14T11:09:23;20.77;;;11.07;;
16979;SDS011;42288;52.182;21.156;2022-11-14T11:12:13;20.83;;;11.63;;
16979;SDS011;42288;52.182;21.156;2022-11-14T11:14:41;23.13;;;11.37;;
16979;SDS011;42288;52.182;21.156;2022-11-14T11:19:45;19.83;;;11.70;;
16979;SDS011;42288;52.182;21.156;2022-11-14T11:22:26;20.00;;;11.63;;
16979;SDS011;42288;52.182;21.156;2022-11-14T11:25:00;15.83;;;8.37;;
16979;SDS011;42288;52.182;21.156;2022-11-14T11:27:27;14.27;;;8.30;;
16979;SDS011;42288;52.182;21.156;2022-11-14T11:30:00;14.60;;;6.73;;
16979;SDS011;42288;52.182;21.156;2022-11-14T11:32:29;13.00;;;6.80;;
16979;SDS011;42288;52.182;21.156;2022-11-14T11:34:55;10.83;;;6.53;;
16979;SDS011;42288;52.182;21.156;2022-11-14T11:37:23;13.60;;;7.73;;
16979;SDS011;42288;52.182;21.156;2022-11-14T11:39:55;14.63;;;6.97;;
16979;SDS011;42288;52.182;21.156;2022-11-14T11:42:27;11.47;;;6.47;;
16979;SDS011;42288;52.182;21.156;2022-11-14T11:45:01;13.47;;;6.90;;
16979;SDS011;42288;52.182;21.156;2022-11-14T11:47:30;11.73;;;6.50;;
16979;SDS011;42288;52.182;21.156;2022-11-14T11:49:58;12.20;;;7.10;;
16979;SDS011;42288;52.182;21.156;2022-11-14T11:57:49;11.20;;;6.50;;
16979;SDS011;42288;52.182;21.156;2022-11-14T12:00:20;10.13;;;6.30;;
16979;SDS011;42288;52.182;21.156;2022-11-14T12:02:47;12.73;;;7.30;;
16979;SDS011;42288;52.182;21.156;2022-11-14T12:05:22;10.83;;;6.27;;
16979;SDS011;42288;52.182;21.156;2022-11-14T12:10:45;13.93;;;7.40;;
16979;SDS011;42288;52.182;21.156;2022-11-14T12:13:17;13.50;;;7.63;;
16979;SDS011;42288;52.182;21.156;2022-11-14T12:16:17;15.23;;;8.40;;
16979;SDS011;42288;52.182;21.156;2022-11-14T12:18:49;20.90;;;10.57;;
16979;SDS011;42288;52.182;21.156;2022-11-14T12:27:01;27.50;;;14.33;;
16979;SDS011;42288;52.182;21.156;2022-11-14T12:29:43;25.57;;;13.83;;
16979;SDS011;42288;52.182;21.156;2022-11-14T12:32:25;31.17;;;15.20;;
16979;SDS011;42288;52.182;21.156;2022-11-14T12:34:57;25.57;;;13.60;;
16979;SDS011;42288;52.182;21.156;2022-11-14T12:40:07;26.83;;;14.50;;
16979;SDS011;42288;52.182;21.156;2022-11-14T12:42:49;29.60;;;14.77;;
16979;SDS011;42288;52.182;21.156;2022-11-14T12:48:14;34.07;;;16.63;;
16979;SDS011;42288;52.182;21.156;2022-11-14T12:50:46;33.23;;;14.57;;
16979;SDS011;42288;52.182;21.156;2022-11-14T12:56:13;39.70;;;18.43;;
16979;SDS011;42288;52.182;21.156;2022-11-14T12:59:11;47.63;;;21.13;;
16979;SDS011;42288;52.182;21.156;2022-11-14T13:01:44;45.27;;;19.33;;
16979;SDS011;42288;52.182;21.156;2022-11-14T13:04:41;47.73;;;20.43;;
16979;SDS011;42288;52.182;21.156;2022-11-14T13:21:38;43.63;;;18.20;;
16979;SDS011;42288;52.182;21.156;2022-11-14T13:27:31;41.93;;;18.30;;
16979;SDS011;42288;52.182;21.156;2022-11-14T13:29:58;39.73;;;17.37;;
16979;SDS011;42288;52.182;21.156;2022-11-14T13:35:17;36.20;;;16.97;;
16979;SDS011;42288;52.182;21.156;2022-11-14T13:51:09;41.23;;;16.90;;
16979;SDS011;42288;52.182;21.156;2022-11-14T13:53:38;39.90;;;17.80;;
16979;SDS011;42288;52.182;21.156;2022-11-14T13:59:00;40.93;;;17.87;;
16979;SDS011;42288;52.182;21.156;2022-11-14T14:07:21;42.27;;;19.00;;
16979;SDS011;42288;52.182;21.156;2022-11-14T14:12:33;39.57;;;19.23;;
16979;SDS011;42288;52.182;21.156;2022-11-14T14:15:20;43.70;;;19.20;;
16979;SDS011;42288;52.182;21.156;2022-11-14T14:18:27;46.23;;;19.83;;
16979;SDS011;42288;52.182;21.156;2022-11-14T14:21:22;45.97;;;21.17;;
16979;SDS011;42288;52.182;21.156;2022-11-14T14:23:59;52.03;;;23.93;;
16979;SDS011;42288;52.182;21.156;2022-11-14T14:26:38;51.17;;;24.17;;
16979;SDS011;42288;52.182;21.156;2022-11-14T14:31:52;45.20;;;23.30;;
16979;SDS011;42288;52.182;21.156;2022-11-14T14:34:22;42.03;;;20.43;;
16979;SDS011;42288;52.182;21.156;2022-11-14T14:36:52;38.20;;;19.50;;
16979;SDS011;42288;52.182;21.156;2022-11-14T14:39:20;37.43;;;17.77;;
16979;SDS011;42288;52.182;21.156;2022-11-14T14:41:51;35.40;;;18.30;;
16979;SDS011;42288;52.182;21.156;2022-11-14T14:44:21;34.30;;;17.43;;
16979;SDS011;42288;52.182;21.156;2022-11-14T14:47:14;29.53;;;15.70;;
16979;SDS011;42288;52.182;21.156;2022-11-14T14:49:59;30.30;;;14.90;;
16979;SDS011;42288;52.182;21.156;2022-11-14T14:52:34;23.63;;;12.23;;
16979;SDS011;42288;52.182;21.156;2022-11-14T14:55:01;23.97;;;12.97;;
16979;SDS011;42288;52.182;21.156;2022-11-14T14:57:28;24.90;;;12.30;;
16979;SDS011;42288;52.182;21.156;2022-11-14T15:00:01;21.30;;;12.40;;
16979;SDS011;42288;52.182;21.156;2022-11-14T15:02:29;21.27;;;12.20;;
16979;SDS011;42288;52.182;21.156;2022-11-14T15:04:55;23.40;;;12.47;;
16979;SDS011;42288;52.182;21.156;2022-11-14T15:07:23;27.97;;;15.17;;
16979;SDS011;42288;52.182;21.156;2022-11-14T15:09:51;24.30;;;12.90;;
16979;SDS011;42288;52.182;21.156;2022-11-14T15:12:17;22.20;;;12.47;;
16979;SDS011;42288;52.182;21.156;2022-11-14T15:14:43;26.27;;;13.53;;
16979;SDS011;42288;52.182;21.156;2022-11-14T15:17:09;27.40;;;15.73;;
16979;SDS011;42288;52.182;21.156;2022-11-14T15:19:39;29.30;;;14.97;;
16979;SDS011;42288;52.182;21.156;2022-11-14T15:24:34;30.67;;;13.70;;
16979;SDS011;42288;52.182;21.156;2022-11-14T15:27:04;31.97;;;16.83;;
16979;SDS011;42288;52.182;21.156;2022-11-14T15:29:47;32.20;;;16.03;;
16979;SDS011;42288;52.182;21.156;2022-11-14T15:32:20;28.87;;;15.33;;
16979;SDS011;42288;52.182;21.156;2022-11-14T15:37:34;27.53;;;14.53;;
16979;SDS011;42288;52.182;21.156;2022-11-14T15:40:14;28.43;;;14.23;;
16979;SDS011;42288;52.182;21.156;2022-11-14T15:42:44;27.83;;;15.00;;
16979;SDS011;42288;52.182;21.156;2022-11-14T15:45:26;32.00;;;17.73;;
16979;SDS011;42288;52.182;21.156;2022-11-14T15:48:00;31.87;;;16.50;;
16979;SDS011;42288;52.182;21.156;2022-11-14T15:50:32;29.33;;;16.23;;
16979;SDS011;42288;52.182;21.156;2022-11-14T15:52:59;32.37;;;16.70;;
16979;SDS011;42288;52.182;21.156;2022-11-14T15:55:41;30.27;;;14.97;;
16979;SDS011;42288;52.182;21.156;2022-11-14T15:58:10;28.33;;;14.83;;
16979;SDS011;42288;52.182;21.156;2022-11-14T16:00:37;28.90;;;14.90;;
16979;SDS011;42288;52.182;21.156;2022-11-14T16:03:08;30.17;;;16.10;;
16979;SDS011;42288;52.182;21.156;2022-11-14T16:05:39;26.80;;;15.87;;